Skip Navigation LinksHome page > Weather > Current weather Skip Navigation Links

Current Weather

Allaire, Belmar/Farmingdale, N.J.

For information only: do not use for flight planning or navigation.
Latest weather
Observation time Friday, August 14, 2020 12:22 PM EDT
Local time Friday, August 14, 2020 12:27 PM EDT
Flight conditions Visual Meteorological Conditions
Winds
Wind direction East-Northeast (60°)
Wind speed 13 mph
Visibility 10 mi.
Sky condition
Ceiling 3,600 ft. broken clouds
Cloud layer few clouds 2,300 ft.
Cloud layer broken clouds 3,600 ft.
Cloud layer broken clouds 4,900 ft.
Temperature 81°F
Dewpoint 72°F
Altimeter 30.01 in.Hg
Derived measurements
Relative humidity 74%
Heat index 85°F
Density altitude 1798 ft.
Remarks
Fully automated report.
Automated weather observing station with precipitation discriminator.
METAR KBLM 141622Z AUTO 06011KT 10SM FEW023 BKN036 BKN049 27/22 A3001 RMK AO2

Settings

Location code

InnerDrive.Weather 4.0.6770.0 Release CLR 4.0.30319.42000
Copyright ©2018 Inner Drive Technology. All rights reserved. Portions Copyright ©1986-2018 David Braverman.

Find weather

Site navigation


Skip Navigation Links

Place info

Page info

PayPal - The safer, easier way to pay online!

Return home.

Copyright ©2020 Inner Drive Technology. Purveyors of fine, hand-crafted computer software. Page printed 2020-08-14T16:27:45 UTC.